createdAt,value
2023-04-30T00:00:44.066Z,73.15
2023-04-30T00:01:45.719Z,73.09
2023-04-30T00:02:47.381Z,73.16
2023-04-30T00:03:49.217Z,73.29
2023-04-30T00:04:50.956Z,73.15
2023-04-30T00:05:52.529Z,73.23
2023-04-30T00:06:54.221Z,73.22
2023-04-30T00:07:56.252Z,72.82
2023-04-30T00:08:57.825Z,73.78
2023-04-30T00:09:59.349Z,73.44
2023-04-30T00:11:00.884Z,73.63
2023-04-30T00:12:02.530Z,73.95
2023-04-30T00:13:04.043Z,74.81
2023-04-30T00:14:05.633Z,75.31
2023-04-30T00:15:07.526Z,75.80
2023-04-30T00:16:09.192Z,76.11
2023-04-30T00:17:10.762Z,76.37
2023-04-30T00:18:12.508Z,76.01
2023-04-30T00:19:14.474Z,76.03
2023-04-30T00:20:16.450Z,75.93
2023-04-30T00:21:18.089Z,75.72
2023-04-30T00:22:19.663Z,76.04
2023-04-30T00:23:21.241Z,75.99
2023-04-30T00:24:22.840Z,75.54
2023-04-30T00:25:24.741Z,75.51
2023-04-30T00:26:26.859Z,75.56
2023-04-30T00:27:28.503Z,75.01
2023-04-30T00:28:30.042Z,74.65
2023-04-30T00:29:31.563Z,75.16
2023-04-30T00:30:33.149Z,75.71
2023-04-30T00:31:34.777Z,75.63
2023-04-30T00:32:36.489Z,75.20
2023-04-30T00:33:38.036Z,74.75
2023-04-30T00:34:39.647Z,73.50
2023-04-30T00:35:41.783Z,73.25
2023-04-30T00:36:43.383Z,73.32
2023-04-30T00:37:45.002Z,73.25
2023-04-30T00:38:46.542Z,73.07
2023-04-30T00:39:48.079Z,72.55
2023-04-30T00:40:49.884Z,72.22
2023-04-30T00:41:51.395Z,71.98
2023-04-30T00:42:55.756Z,71.39
2023-04-30T00:43:57.423Z,71.01
2023-04-30T00:44:58.977Z,70.83
2023-04-30T00:46:00.676Z,70.96
2023-04-30T00:47:02.275Z,70.91
2023-04-30T00:48:04.264Z,71.00
2023-04-30T00:49:05.990Z,70.65
2023-04-30T00:50:07.916Z,70.10
2023-04-30T00:51:09.560Z,70.64
2023-04-30T00:52:11.238Z,70.17
2023-04-30T00:53:13.057Z,70.17
2023-04-30T00:54:14.798Z,70.26
2023-04-30T00:55:17.147Z,71.09
2023-04-30T00:56:18.799Z,71.04
2023-04-30T00:57:21.066Z,71.32
2023-04-30T00:58:23.212Z,70.76
2023-04-30T00:59:25.214Z,70.92
2023-04-30T01:00:27.735Z,70.65
2023-04-30T01:01:29.729Z,70.74
2023-04-30T01:02:31.872Z,70.26
2023-04-30T01:03:36.195Z,70.70
2023-04-30T01:04:38.853Z,70.08
2023-04-30T01:05:40.740Z,70.25
2023-04-30T01:06:43.358Z,69.94
2023-04-30T01:07:46.474Z,70.02
2023-04-30T01:08:48.986Z,70.15
2023-04-30T01:09:50.939Z,70.20
2023-04-30T01:10:58.245Z,69.99
2023-04-30T01:12:18.566Z,70.01
2023-04-30T01:13:30.305Z,70.03
2023-04-30T01:14:58.254Z,70.07
2023-04-30T01:16:10.801Z,70.67
2023-04-30T01:17:29.368Z,70.88
2023-04-30T01:18:42.273Z,71.72
2023-04-30T01:19:47.171Z,72.41
2023-04-30T01:20:59.180Z,72.52
2023-04-30T01:22:04.236Z,73.14
2023-04-30T01:23:37.271Z,72.65
2023-04-30T01:24:38.775Z,72.41
2023-04-30T01:25:40.435Z,72.50
2023-04-30T01:26:57.252Z,72.41
2023-04-30T01:28:02.017Z,72.11
2023-04-30T01:29:04.851Z,72.47
2023-04-30T01:30:07.409Z,71.95
2023-04-30T01:31:16.620Z,72.11
2023-04-30T01:32:18.423Z,72.76
2023-04-30T01:33:20.011Z,73.26
2023-04-30T01:34:21.629Z,72.88
2023-04-30T01:35:41.362Z,72.75
2023-04-30T01:37:10.883Z,73.33
2023-04-30T01:38:15.467Z,72.79
2023-04-30T01:39:35.138Z,73.36
2023-04-30T01:40:58.070Z,73.70
2023-04-30T01:42:22.009Z,73.23
2023-04-30T01:43:32.271Z,73.15
2023-04-30T01:45:18.786Z,73.39
2023-04-30T01:46:27.362Z,73.55
2023-04-30T01:47:47.724Z,73.85
2023-04-30T01:49:18.449Z,73.92
2023-04-30T01:50:36.998Z,73.90
2023-04-30T01:51:43.969Z,74.45
2023-04-30T01:52:50.346Z,74.27
2023-04-30T01:53:55.740Z,74.19
2023-04-30T01:55:03.203Z,74.47
2023-04-30T01:56:09.577Z,74.19
2023-04-30T01:57:21.599Z,73.29
2023-04-30T01:58:24.823Z,72.89
2023-04-30T01:59:26.789Z,73.25
2023-04-30T02:00:30.753Z,73.03
2023-04-30T02:01:33.659Z,73.02
2023-04-30T02:02:35.347Z,72.92
2023-04-30T02:03:37.055Z,74.03
2023-04-30T02:04:38.678Z,74.74
2023-04-30T02:05:40.246Z,74.90
2023-04-30T02:06:41.949Z,74.88
2023-04-30T02:07:45.650Z,74.64
2023-04-30T02:08:47.297Z,74.85
2023-04-30T02:09:48.803Z,74.77
2023-04-30T02:10:50.317Z,74.85
2023-04-30T02:11:51.855Z,75.15
2023-04-30T02:12:54.203Z,75.34
2023-04-30T02:13:55.815Z,76.00
2023-04-30T02:14:57.736Z,75.77
2023-04-30T02:15:59.296Z,76.07
2023-04-30T02:17:00.927Z,76.62
2023-04-30T02:18:02.471Z,76.39
2023-04-30T02:19:03.993Z,76.12
2023-04-30T02:20:06.176Z,76.06
2023-04-30T02:21:07.716Z,76.22
2023-04-30T02:22:09.950Z,76.24
2023-04-30T02:23:11.556Z,75.98
2023-04-30T02:24:13.181Z,75.96
2023-04-30T02:25:14.735Z,76.03
2023-04-30T02:26:16.248Z,75.57
2023-04-30T02:27:18.266Z,75.79
2023-04-30T02:28:19.840Z,75.74
2023-04-30T02:29:21.404Z,75.73
2023-04-30T02:30:22.979Z,75.98
2023-04-30T02:31:24.717Z,75.89
2023-04-30T02:32:26.537Z,75.76
2023-04-30T02:33:28.053Z,75.32
2023-04-30T02:34:29.597Z,75.70
2023-04-30T02:35:31.218Z,75.80
2023-04-30T02:36:36.310Z,75.94
2023-04-30T02:37:38.072Z,75.46
2023-04-30T02:38:39.624Z,75.26
2023-04-30T02:39:41.633Z,75.25
2023-04-30T02:40:43.204Z,74.50
2023-04-30T02:41:44.823Z,74.51
2023-04-30T02:42:46.436Z,74.43
2023-04-30T02:43:48.033Z,73.94
2023-04-30T02:44:49.597Z,74.10
2023-04-30T02:45:51.253Z,73.75
2023-04-30T02:46:53.030Z,73.48
2023-04-30T02:47:54.611Z,73.74
2023-04-30T02:48:56.268Z,73.50
2023-04-30T02:49:57.764Z,73.70
2023-04-30T02:50:59.238Z,73.57
2023-04-30T02:52:01.083Z,74.01
2023-04-30T02:53:02.667Z,74.17
2023-04-30T02:54:04.236Z,74.06
2023-04-30T02:55:06.659Z,73.85
2023-04-30T02:56:08.345Z,73.70
2023-04-30T02:57:10.018Z,73.56
2023-04-30T02:58:11.600Z,73.98
2023-04-30T02:59:13.616Z,73.65
2023-04-30T03:00:15.535Z,73.51
2023-04-30T03:01:17.322Z,73.29
2023-04-30T03:02:21.583Z,73.78
2023-04-30T03:03:23.575Z,73.93
2023-04-30T03:04:26.079Z,74.04
2023-04-30T03:05:28.508Z,73.95
2023-04-30T03:06:31.353Z,73.79
2023-04-30T03:07:32.890Z,75.95
2023-04-30T03:08:34.523Z,77.81
2023-04-30T03:09:36.619Z,79.28
2023-04-30T03:10:38.139Z,80.17
2023-04-30T03:11:39.702Z,80.31
2023-04-30T03:12:41.227Z,80.44
2023-04-30T03:13:43.494Z,79.84
2023-04-30T03:14:45.003Z,79.44
2023-04-30T03:15:46.668Z,79.05
2023-04-30T03:16:48.398Z,78.65
2023-04-30T03:17:50.025Z,78.45
2023-04-30T03:18:51.619Z,78.26
2023-04-30T03:19:53.566Z,77.63
2023-04-30T03:20:55.459Z,77.26
2023-04-30T03:21:57.009Z,76.89
2023-04-30T03:22:58.540Z,76.79
2023-04-30T03:24:00.063Z,76.83
2023-04-30T03:25:01.664Z,76.54
2023-04-30T03:26:03.412Z,76.48
2023-04-30T03:27:04.952Z,76.81
2023-04-30T03:28:06.592Z,77.11
2023-04-30T03:29:08.134Z,76.77
2023-04-30T03:30:09.922Z,76.65
2023-04-30T03:31:11.642Z,77.30
2023-04-30T03:32:13.233Z,77.55
2023-04-30T03:33:14.784Z,77.66
2023-04-30T03:34:16.608Z,77.98
2023-04-30T03:35:19.157Z,77.86
2023-04-30T03:36:21.128Z,77.38
2023-04-30T03:37:22.650Z,77.40
2023-04-30T03:38:24.412Z,77.23
2023-04-30T03:39:26.153Z,76.92
2023-04-30T03:40:27.911Z,76.92
2023-04-30T03:41:29.597Z,76.90
2023-04-30T03:42:31.132Z,77.27
2023-04-30T03:43:32.682Z,78.20
2023-04-30T03:44:34.288Z,78.63
2023-04-30T03:45:36.364Z,78.83
2023-04-30T03:46:38.053Z,79.19
2023-04-30T03:47:39.793Z,79.91
2023-04-30T03:48:41.438Z,80.03
2023-04-30T03:49:42.999Z,80.59
2023-04-30T03:50:45.274Z,81.23
2023-04-30T03:51:46.980Z,81.12
2023-04-30T03:52:48.602Z,82.44
2023-04-30T03:53:50.149Z,82.46
2023-04-30T03:54:51.723Z,82.30
2023-04-30T03:55:54.546Z,82.07
2023-04-30T03:56:56.163Z,81.76
2023-04-30T03:57:58.438Z,81.93
2023-04-30T03:59:00.109Z,81.92
2023-04-30T04:00:01.989Z,82.01
2023-04-30T04:01:04.176Z,81.52
2023-04-30T04:02:06.497Z,82.47
2023-04-30T04:03:08.440Z,82.68
2023-04-30T04:04:10.236Z,83.57
2023-04-30T04:05:11.892Z,82.74
2023-04-30T04:06:13.428Z,83.22
2023-04-30T04:07:15.120Z,81.90
2023-04-30T04:08:16.695Z,82.76
2023-04-30T04:09:18.232Z,82.86
2023-04-30T04:10:19.879Z,82.90
2023-04-30T04:11:21.498Z,82.59
2023-04-30T04:12:23.664Z,82.20
2023-04-30T04:13:25.327Z,81.75
2023-04-30T04:14:26.949Z,80.84
2023-04-30T04:15:28.473Z,81.10
2023-04-30T04:16:30.123Z,81.74
2023-04-30T04:17:31.957Z,81.55
2023-04-30T04:18:33.570Z,81.34
2023-04-30T04:19:35.086Z,81.50
2023-04-30T04:20:36.636Z,81.11
2023-04-30T04:21:38.203Z,81.14
2023-04-30T04:22:39.941Z,81.23
2023-04-30T04:23:41.664Z,82.02
2023-04-30T04:24:43.260Z,81.21
2023-04-30T04:25:46.584Z,81.61
2023-04-30T04:26:48.593Z,81.71
2023-04-30T04:27:50.363Z,81.58
2023-04-30T04:28:52.224Z,81.00
2023-04-30T04:29:55.056Z,81.62
2023-04-30T04:30:56.937Z,82.43
2023-04-30T04:32:00.509Z,82.04
2023-04-30T04:33:02.431Z,82.35
2023-04-30T04:34:05.209Z,82.57
2023-04-30T04:35:07.175Z,82.56
2023-04-30T04:36:09.688Z,83.00
2023-04-30T04:37:12.541Z,83.28
2023-04-30T04:38:14.992Z,83.59
2023-04-30T04:39:16.666Z,83.98
2023-04-30T04:40:18.627Z,83.91
2023-04-30T04:41:20.970Z,83.84
2023-04-30T04:42:23.036Z,84.78
2023-04-30T04:43:24.663Z,85.09
2023-04-30T04:44:27.238Z,85.19
2023-04-30T04:45:28.822Z,85.68
2023-04-30T04:46:32.024Z,85.67
2023-04-30T04:47:33.729Z,86.38
2023-04-30T04:48:35.495Z,87.08
2023-04-30T04:49:37.055Z,87.69
2023-04-30T04:50:38.634Z,87.01
2023-04-30T04:51:40.387Z,87.61
2023-04-30T04:52:41.989Z,85.73
2023-04-30T04:53:43.690Z,85.76
2023-04-30T04:54:45.293Z,85.87
2023-04-30T04:55:46.852Z,85.09
2023-04-30T04:56:48.542Z,85.16
2023-04-30T04:57:50.138Z,85.49
2023-04-30T04:58:51.652Z,84.37
2023-04-30T04:59:53.493Z,84.85
2023-04-30T05:00:55.404Z,85.02
2023-04-30T05:01:57.017Z,84.92
2023-04-30T05:02:58.770Z,82.57
2023-04-30T05:04:00.416Z,83.10
2023-04-30T05:05:02.173Z,83.13
2023-04-30T05:06:04.371Z,83.59
2023-04-30T05:07:06.220Z,84.14
2023-04-30T05:08:07.768Z,84.12
2023-04-30T05:09:09.635Z,85.42
2023-04-30T05:10:11.297Z,86.19
2023-04-30T05:11:14.240Z,86.04
2023-04-30T05:12:17.125Z,85.47
2023-04-30T05:13:18.672Z,84.79
2023-04-30T05:14:21.169Z,84.99
2023-04-30T05:15:22.740Z,85.36
2023-04-30T05:16:24.389Z,84.37
2023-04-30T05:17:26.429Z,84.79
2023-04-30T05:18:27.994Z,84.73
2023-04-30T05:19:29.593Z,84.70
2023-04-30T05:20:31.334Z,84.22
2023-04-30T05:21:33.131Z,84.13
2023-04-30T05:22:34.815Z,85.61
2023-04-30T05:23:36.373Z,86.55
2023-04-30T05:24:37.943Z,86.21
2023-04-30T05:25:39.486Z,86.24
2023-04-30T05:26:41.098Z,86.76
2023-04-30T05:27:42.618Z,86.59
2023-04-30T05:28:44.242Z,86.47
2023-04-30T05:29:45.869Z,86.17
2023-04-30T05:30:47.402Z,86.88
2023-04-30T05:31:49.155Z,86.43
2023-04-30T05:32:52.724Z,85.65
2023-04-30T05:33:54.243Z,85.71
2023-04-30T05:34:55.839Z,85.17
2023-04-30T05:35:57.382Z,84.30
2023-04-30T05:36:58.923Z,83.65
2023-04-30T05:38:01.118Z,83.38
2023-04-30T05:39:02.689Z,82.20
2023-04-30T05:40:06.309Z,82.55
2023-04-30T05:41:08.099Z,82.39
2023-04-30T05:42:09.617Z,82.49
2023-04-30T05:43:11.284Z,84.68
2023-04-30T05:44:12.828Z,84.48
2023-04-30T05:45:17.168Z,82.41
2023-04-30T05:46:18.923Z,80.53
2023-04-30T05:47:20.758Z,80.09
2023-04-30T05:48:22.256Z,80.39
2023-04-30T05:49:23.868Z,80.65
2023-04-30T05:50:25.416Z,79.91
2023-04-30T05:51:27.927Z,79.18
2023-04-30T05:52:29.477Z,79.22
2023-04-30T05:53:31.033Z,78.57
2023-04-30T05:54:32.663Z,79.30
2023-04-30T05:55:34.627Z,79.36
2023-04-30T05:56:36.213Z,79.19
2023-04-30T05:57:37.823Z,78.55
2023-04-30T05:58:39.618Z,78.52
2023-04-30T05:59:41.431Z,78.03
2023-04-30T06:00:42.956Z,77.67
2023-04-30T06:01:44.630Z,76.51
2023-04-30T06:02:46.336Z,77.51
2023-04-30T06:03:47.939Z,77.51
2023-04-30T06:04:49.548Z,77.49
2023-04-30T06:05:51.179Z,76.91
2023-04-30T06:06:52.821Z,76.88
2023-04-30T06:07:54.412Z,78.38
2023-04-30T06:08:56.272Z,78.19
2023-04-30T06:09:57.922Z,77.45
2023-04-30T06:11:00.637Z,78.25
2023-04-30T06:12:02.524Z,77.94
2023-04-30T06:13:04.135Z,78.11
2023-04-30T06:14:06.004Z,78.22
2023-04-30T06:15:07.988Z,77.99
2023-04-30T06:16:09.928Z,76.97
2023-04-30T06:17:14.457Z,76.87
2023-04-30T06:18:16.341Z,77.17
2023-04-30T06:19:18.175Z,78.19
2023-04-30T06:20:19.711Z,78.05
2023-04-30T06:21:21.336Z,77.88
2023-04-30T06:22:23.009Z,77.48
2023-04-30T06:23:24.544Z,77.27
2023-04-30T06:24:27.676Z,76.83
2023-04-30T06:25:29.207Z,76.41
2023-04-30T06:26:31.070Z,75.81
2023-04-30T06:27:32.693Z,75.39
2023-04-30T06:28:34.288Z,74.80
2023-04-30T06:29:35.941Z,74.12
2023-04-30T06:30:37.519Z,74.05
2023-04-30T06:31:39.122Z,73.57
2023-04-30T06:32:41.476Z,72.38
2023-04-30T06:33:43.117Z,72.80
2023-04-30T06:34:44.644Z,71.26
2023-04-30T06:35:46.540Z,71.44
2023-04-30T06:36:48.118Z,71.32
2023-04-30T06:37:49.625Z,71.53
2023-04-30T06:38:51.226Z,71.37
2023-04-30T06:39:53.045Z,70.89
2023-04-30T06:40:55.105Z,71.07
2023-04-30T06:41:56.713Z,71.05
2023-04-30T06:42:58.249Z,70.62
2023-04-30T06:43:59.858Z,69.25
2023-04-30T06:45:06.732Z,68.79
2023-04-30T06:46:08.422Z,69.05
2023-04-30T06:47:09.945Z,66.65
2023-04-30T06:48:11.497Z,66.53
2023-04-30T06:49:13.059Z,65.68
2023-04-30T06:50:15.828Z,65.58
2023-04-30T06:51:17.702Z,64.76
2023-04-30T06:52:19.314Z,62.08
2023-04-30T06:53:21.642Z,63.80
2023-04-30T06:54:23.538Z,61.82
2023-04-30T06:55:25.242Z,62.70
2023-04-30T06:56:26.798Z,61.80
2023-04-30T06:57:28.415Z,63.73
2023-04-30T06:58:29.930Z,63.36
2023-04-30T06:59:31.507Z,62.38
2023-04-30T07:00:33.069Z,61.41
2023-04-30T07:01:34.696Z,62.02
2023-04-30T07:02:36.318Z,60.14
2023-04-30T07:03:38.086Z,58.34
2023-04-30T07:04:39.741Z,58.08
2023-04-30T07:05:41.723Z,58.37
2023-04-30T07:06:43.321Z,60.40
2023-04-30T07:07:44.869Z,59.31
2023-04-30T07:08:46.550Z,57.88
2023-04-30T07:09:49.625Z,57.15
2023-04-30T07:10:52.624Z,56.56
2023-04-30T07:11:54.170Z,56.65
2023-04-30T07:12:56.673Z,55.02
2023-04-30T07:13:58.266Z,55.08
2023-04-30T07:15:00.011Z,54.89
2023-04-30T07:16:01.817Z,54.71
2023-04-30T07:17:03.521Z,55.47
2023-04-30T07:18:05.091Z,55.65
2023-04-30T07:19:06.938Z,55.53
2023-04-30T07:20:09.368Z,55.55
2023-04-30T07:21:10.920Z,54.67
2023-04-30T07:22:12.761Z,54.62
2023-04-30T07:23:14.338Z,56.09
2023-04-30T07:24:15.838Z,56.87
2023-04-30T07:25:17.525Z,56.95
2023-04-30T07:26:19.430Z,56.84
2023-04-30T07:27:21.139Z,56.83
2023-04-30T07:28:22.892Z,56.07
2023-04-30T07:29:24.414Z,55.63
2023-04-30T07:30:26.415Z,55.68
2023-04-30T07:31:28.037Z,57.56
2023-04-30T07:32:29.573Z,57.11
2023-04-30T07:33:31.414Z,55.64
2023-04-30T07:34:33.295Z,56.08
2023-04-30T07:35:34.979Z,55.06
2023-04-30T07:36:38.679Z,53.08
2023-04-30T07:37:43.973Z,53.53
2023-04-30T07:38:45.488Z,53.73
2023-04-30T07:39:47.033Z,52.92
2023-04-30T07:40:48.603Z,51.82
2023-04-30T07:41:50.256Z,50.31
2023-04-30T07:42:51.796Z,49.43
2023-04-30T07:43:53.607Z,49.03
2023-04-30T07:44:55.175Z,48.78
2023-04-30T07:45:56.788Z,48.84
2023-04-30T07:46:58.423Z,48.28
2023-04-30T07:47:59.967Z,48.46
2023-04-30T07:49:01.511Z,49.55
2023-04-30T07:50:03.454Z,49.83
2023-04-30T07:51:05.087Z,50.53
2023-04-30T07:52:08.653Z,50.47
2023-04-30T07:53:10.446Z,49.85
2023-04-30T07:54:12.079Z,49.25
2023-04-30T07:55:13.675Z,49.36
2023-04-30T07:56:15.362Z,52.33
2023-04-30T07:57:16.889Z,51.35
2023-04-30T07:58:18.440Z,51.13
2023-04-30T07:59:21.425Z,48.94
2023-04-30T08:00:23.152Z,47.91
2023-04-30T08:01:25.386Z,48.01
2023-04-30T08:02:27.139Z,47.36
2023-04-30T08:03:28.961Z,48.13
2023-04-30T08:04:30.713Z,49.10
2023-04-30T08:05:32.417Z,49.12
2023-04-30T08:06:34.367Z,49.33
2023-04-30T08:07:35.922Z,46.67
2023-04-30T08:08:37.576Z,49.44
2023-04-30T08:09:39.156Z,49.47
2023-04-30T08:10:41.941Z,49.22
2023-04-30T08:11:43.492Z,48.84
2023-04-30T08:12:45.186Z,49.07
2023-04-30T08:13:47.055Z,49.99
2023-04-30T08:14:48.563Z,49.94
2023-04-30T08:15:50.092Z,49.67
2023-04-30T08:16:52.180Z,49.21
2023-04-30T08:17:53.802Z,49.30
2023-04-30T08:18:55.546Z,48.08
2023-04-30T08:19:57.105Z,48.48
2023-04-30T08:20:59.794Z,48.73
2023-04-30T08:22:01.371Z,46.62
2023-04-30T08:23:02.908Z,46.77
2023-04-30T08:24:05.030Z,47.64
2023-04-30T08:25:06.909Z,46.39
2023-04-30T08:26:08.439Z,48.65
2023-04-30T08:27:10.067Z,48.32
2023-04-30T08:28:11.610Z,48.56
2023-04-30T08:29:13.156Z,45.81
2023-04-30T08:30:14.776Z,45.55
2023-04-30T08:31:16.374Z,46.52
2023-04-30T08:32:19.966Z,46.78
2023-04-30T08:33:21.803Z,47.37
2023-04-30T08:34:23.392Z,45.01
2023-04-30T08:35:25.026Z,46.42
2023-04-30T08:36:27.718Z,47.88
2023-04-30T08:37:29.254Z,46.87
2023-04-30T08:38:30.784Z,46.83
2023-04-30T08:39:32.517Z,48.58
2023-04-30T08:40:50.296Z,47.54
2023-04-30T08:41:56.150Z,47.17
2023-04-30T08:43:05.898Z,48.45
2023-04-30T08:44:08.618Z,47.20
2023-04-30T08:45:13.193Z,47.81
2023-04-30T08:46:17.143Z,46.47
2023-04-30T08:47:20.805Z,47.15
2023-04-30T08:48:24.986Z,46.96
2023-04-30T08:49:28.211Z,46.70
2023-04-30T08:50:29.783Z,46.54
2023-04-30T08:51:33.197Z,46.66
2023-04-30T08:52:38.284Z,47.60
2023-04-30T08:53:41.125Z,48.38
2023-04-30T08:54:44.347Z,49.25
2023-04-30T08:55:47.303Z,48.35
2023-04-30T08:56:48.855Z,48.63
2023-04-30T08:57:50.483Z,48.21
2023-04-30T08:58:52.072Z,48.44
2023-04-30T08:59:56.919Z,47.63
2023-04-30T09:01:00.048Z,48.84
2023-04-30T09:02:04.517Z,49.17
2023-04-30T09:03:07.287Z,48.65
2023-04-30T09:04:08.987Z,48.54
2023-04-30T09:05:13.124Z,48.50
2023-04-30T09:06:17.803Z,47.83
2023-04-30T09:07:23.692Z,47.77
2023-04-30T09:08:44.598Z,48.37
2023-04-30T09:09:46.156Z,49.36
2023-04-30T09:10:47.836Z,48.12
2023-04-30T09:11:49.377Z,48.30
2023-04-30T09:13:07.072Z,50.26
2023-04-30T09:14:08.752Z,50.20
2023-04-30T09:15:10.870Z,49.59
2023-04-30T09:16:12.636Z,50.59
2023-04-30T09:17:22.176Z,48.75
2023-04-30T09:18:23.748Z,48.69
2023-04-30T09:19:30.543Z,48.64
2023-04-30T09:20:32.276Z,48.84
2023-04-30T09:21:37.822Z,49.01
2023-04-30T09:22:41.852Z,49.75
2023-04-30T09:23:57.556Z,49.68
2023-04-30T09:24:59.063Z,50.35
2023-04-30T09:26:01.061Z,48.72
2023-04-30T09:27:16.249Z,48.93
2023-04-30T09:28:18.889Z,49.66
2023-04-30T09:29:20.520Z,51.66
2023-04-30T09:30:34.929Z,49.35
2023-04-30T09:31:38.670Z,49.20
2023-04-30T09:32:56.790Z,50.75
2023-04-30T09:33:58.567Z,50.74
2023-04-30T09:35:00.187Z,50.06
2023-04-30T09:36:09.443Z,48.28
2023-04-30T09:37:11.913Z,48.51
2023-04-30T09:38:31.064Z,48.03
2023-04-30T09:39:32.848Z,49.77
2023-04-30T09:40:40.463Z,49.14
2023-04-30T09:41:42.306Z,49.64
2023-04-30T09:42:59.496Z,47.44
2023-04-30T09:44:01.897Z,48.59
2023-04-30T09:45:05.337Z,48.59
2023-04-30T09:46:06.929Z,48.53
2023-04-30T09:47:14.253Z,48.27
2023-04-30T09:48:17.880Z,47.81
2023-04-30T09:49:20.062Z,47.45
2023-04-30T09:50:21.762Z,48.24
2023-04-30T09:51:23.536Z,46.33
2023-04-30T09:52:25.265Z,48.30
2023-04-30T09:53:27.105Z,47.36
2023-04-30T09:54:30.605Z,46.97
2023-04-30T09:55:33.335Z,47.60
2023-04-30T09:56:39.624Z,49.35
2023-04-30T09:57:41.499Z,46.50
2023-04-30T09:58:50.025Z,48.49
2023-04-30T09:59:53.555Z,46.14
2023-04-30T10:00:59.740Z,46.20
2023-04-30T10:02:03.232Z,45.57
2023-04-30T10:03:10.639Z,47.53
2023-04-30T10:04:12.438Z,44.88
2023-04-30T10:05:14.264Z,46.65
2023-04-30T10:06:19.491Z,45.99
2023-04-30T10:07:22.676Z,45.36
2023-04-30T10:08:28.463Z,44.90
2023-04-30T10:09:40.017Z,46.88
2023-04-30T10:10:44.563Z,46.28
2023-04-30T10:11:47.192Z,45.78
2023-04-30T10:12:54.344Z,46.12
2023-04-30T10:14:11.874Z,46.81
2023-04-30T10:15:17.974Z,46.26
2023-04-30T10:16:37.901Z,45.48
2023-04-30T10:17:41.594Z,44.85
2023-04-30T10:18:44.053Z,44.81
2023-04-30T10:19:52.577Z,43.40
2023-04-30T10:20:55.565Z,43.90
2023-04-30T10:21:57.604Z,44.17
2023-04-30T10:23:00.784Z,43.86
2023-04-30T10:24:03.881Z,43.98
2023-04-30T10:25:07.099Z,44.10
2023-04-30T10:26:10.974Z,44.53
2023-04-30T10:27:13.268Z,44.98
2023-04-30T10:28:16.754Z,45.22
2023-04-30T10:29:18.689Z,46.22
2023-04-30T10:30:22.483Z,46.31
2023-04-30T10:31:24.511Z,45.18
2023-04-30T10:32:36.103Z,44.08
2023-04-30T10:34:11.296Z,45.40
2023-04-30T10:35:13.359Z,45.35
2023-04-30T10:36:18.082Z,46.24
2023-04-30T10:37:25.637Z,44.91
2023-04-30T10:38:30.543Z,44.37
2023-04-30T10:39:33.098Z,44.59
2023-04-30T10:40:37.373Z,45.58
2023-04-30T10:41:39.221Z,44.43
2023-04-30T10:42:50.740Z,44.50
2023-04-30T10:43:56.654Z,44.27
2023-04-30T10:44:58.265Z,45.25
2023-04-30T10:46:00.272Z,45.02
2023-04-30T10:47:03.347Z,44.72
2023-04-30T10:48:06.824Z,44.64
2023-04-30T10:49:08.768Z,44.21
2023-04-30T10:50:10.994Z,44.80
2023-04-30T10:51:12.556Z,44.00
2023-04-30T10:52:14.279Z,45.32
2023-04-30T10:53:18.917Z,44.90
2023-04-30T10:54:28.749Z,45.09
2023-04-30T10:55:31.257Z,44.09
2023-04-30T10:56:33.404Z,43.17
2023-04-30T10:57:48.350Z,43.45
2023-04-30T10:58:51.239Z,43.15
2023-04-30T11:00:16.209Z,42.82
2023-04-30T11:01:17.859Z,43.41
2023-04-30T11:02:19.686Z,45.50
2023-04-30T11:03:22.556Z,45.35
2023-04-30T11:04:24.509Z,45.71
2023-04-30T11:05:37.986Z,46.39
2023-04-30T11:07:02.055Z,46.75
2023-04-30T11:08:04.100Z,47.64
2023-04-30T11:09:05.727Z,48.59
2023-04-30T11:10:08.708Z,48.85
2023-04-30T11:11:11.551Z,47.86
2023-04-30T11:12:21.853Z,47.61
2023-04-30T11:13:26.456Z,48.03
2023-04-30T11:14:28.512Z,48.63
2023-04-30T11:15:48.319Z,49.21
2023-04-30T11:16:51.246Z,49.44
2023-04-30T11:17:58.541Z,49.18
2023-04-30T11:19:11.270Z,49.51
2023-04-30T11:20:14.979Z,50.17
2023-04-30T11:21:16.532Z,50.44
2023-04-30T11:22:20.092Z,50.13
2023-04-30T11:23:38.509Z,50.30
2023-04-30T11:24:59.984Z,51.16
2023-04-30T11:26:01.704Z,51.77
2023-04-30T11:27:06.573Z,51.58
2023-04-30T11:28:13.410Z,52.32
2023-04-30T11:29:15.573Z,51.42
2023-04-30T11:30:19.107Z,51.83
2023-04-30T11:31:21.024Z,52.24
2023-04-30T11:32:24.198Z,51.43
2023-04-30T11:33:29.101Z,51.11
2023-04-30T11:34:31.289Z,49.98
2023-04-30T11:35:33.630Z,50.07
2023-04-30T11:36:35.446Z,49.19
2023-04-30T11:37:39.836Z,48.32
2023-04-30T11:38:41.929Z,48.01
2023-04-30T11:39:43.715Z,48.37
2023-04-30T11:40:46.208Z,49.07
2023-04-30T11:41:47.731Z,50.72
2023-04-30T11:42:49.279Z,50.44
2023-04-30T11:43:50.813Z,51.42
2023-04-30T11:44:52.559Z,51.15
2023-04-30T11:46:20.660Z,51.18
2023-04-30T11:47:22.340Z,50.72
2023-04-30T11:48:23.961Z,50.17
2023-04-30T11:49:26.863Z,50.04
2023-04-30T11:50:33.820Z,50.09
2023-04-30T11:51:36.589Z,49.41
2023-04-30T11:52:39.224Z,49.70
2023-04-30T11:53:41.506Z,50.50
2023-04-30T11:54:43.023Z,51.22
2023-04-30T11:55:44.555Z,52.20
2023-04-30T11:56:50.215Z,53.16
2023-04-30T11:57:55.615Z,51.38
2023-04-30T11:58:57.195Z,51.37
2023-04-30T12:00:10.016Z,51.03
2023-04-30T12:01:11.779Z,50.70
2023-04-30T12:02:16.797Z,49.87
2023-04-30T12:03:18.638Z,49.72
2023-04-30T12:04:20.437Z,50.04
2023-04-30T12:05:25.148Z,49.37
2023-04-30T12:06:28.775Z,49.10
2023-04-30T12:07:30.493Z,47.30
2023-04-30T12:08:32.058Z,48.60
2023-04-30T12:09:33.616Z,49.25
2023-04-30T12:10:36.168Z,49.45
2023-04-30T12:11:38.890Z,49.17
2023-04-30T12:12:40.636Z,47.98
2023-04-30T12:13:50.592Z,45.39
2023-04-30T12:14:52.396Z,47.42
2023-04-30T12:15:59.409Z,46.37
2023-04-30T12:17:01.141Z,43.84
2023-04-30T12:18:13.370Z,43.55
2023-04-30T12:19:16.715Z,44.10
2023-04-30T12:20:18.775Z,43.27
2023-04-30T12:21:23.000Z,42.05
2023-04-30T12:22:24.731Z,43.59
2023-04-30T12:23:26.322Z,43.08
2023-04-30T12:24:27.965Z,45.14
2023-04-30T12:25:30.726Z,43.74
2023-04-30T12:26:40.231Z,43.39
2023-04-30T12:27:50.838Z,43.48
2023-04-30T12:28:52.688Z,42.01
2023-04-30T12:29:56.505Z,40.75
2023-04-30T12:30:59.425Z,40.21
2023-04-30T12:32:01.101Z,40.34
2023-04-30T12:33:03.716Z,42.35
2023-04-30T12:34:07.150Z,40.42
2023-04-30T12:35:13.282Z,43.42
2023-04-30T12:36:14.814Z,43.10
2023-04-30T12:37:17.404Z,43.01
2023-04-30T12:38:19.030Z,43.05
2023-04-30T12:39:20.688Z,42.40
2023-04-30T12:40:27.158Z,44.51
2023-04-30T12:41:32.608Z,45.01
2023-04-30T12:42:35.940Z,44.37
2023-04-30T12:43:37.577Z,42.54
2023-04-30T12:44:46.578Z,42.86
2023-04-30T12:45:53.175Z,43.59
2023-04-30T12:46:57.738Z,43.18
2023-04-30T12:47:59.511Z,44.47
2023-04-30T12:49:01.396Z,43.71
2023-04-30T12:50:03.101Z,44.31
2023-04-30T12:51:06.725Z,43.86
2023-04-30T12:52:13.525Z,43.21
2023-04-30T12:53:15.302Z,42.77
2023-04-30T12:54:26.092Z,42.98
2023-04-30T12:55:29.133Z,43.09
2023-04-30T12:56:31.253Z,43.24
2023-04-30T12:57:32.770Z,43.74
2023-04-30T12:58:34.402Z,44.45
2023-04-30T12:59:56.366Z,44.28
2023-04-30T13:00:59.216Z,44.56
2023-04-30T13:02:12.027Z,43.98
2023-04-30T13:03:15.004Z,43.51
2023-04-30T13:04:17.344Z,43.22
2023-04-30T13:05:18.897Z,43.47
2023-04-30T13:06:23.033Z,43.56
2023-04-30T13:07:24.892Z,45.89
2023-04-30T13:08:26.432Z,43.36
2023-04-30T13:09:27.999Z,44.40
2023-04-30T13:10:29.971Z,42.99
2023-04-30T13:11:31.516Z,43.28
2023-04-30T13:12:33.164Z,43.78
2023-04-30T13:13:34.777Z,44.51
2023-04-30T13:14:36.649Z,44.08
2023-04-30T13:15:38.626Z,44.29
2023-04-30T13:16:40.707Z,42.46
2023-04-30T13:17:42.323Z,43.33
2023-04-30T13:18:44.057Z,44.39
2023-04-30T13:19:45.603Z,43.45
2023-04-30T13:20:47.533Z,43.09
2023-04-30T13:21:49.196Z,43.60
2023-04-30T13:22:51.756Z,43.55
2023-04-30T13:23:54.516Z,44.74
2023-04-30T13:24:57.427Z,44.78
2023-04-30T13:25:58.948Z,43.96
2023-04-30T13:27:00.523Z,43.75
2023-04-30T13:28:02.727Z,43.86
2023-04-30T13:29:04.394Z,45.38
2023-04-30T13:30:06.681Z,45.01
2023-04-30T13:31:08.365Z,44.12
2023-04-30T13:32:10.265Z,44.61
2023-04-30T13:33:12.644Z,44.23
2023-04-30T13:34:15.265Z,44.12
2023-04-30T13:35:16.906Z,44.23
2023-04-30T13:36:18.485Z,44.98
2023-04-30T13:37:20.146Z,46.36